PWSweather.com
Personal Weather Stations
Station Observations
TORPERJOSANG
Carretera De Villel SN , MochalesES 19332

Carretera De Villel SN MochalesES 19332

Lat: 41.09957, Lon: -2.012569

Elevation: 3215

Station Type: PSW-20

http://www.torresp.com

High Low Average
Temperature 76.5°F24.7°C 48.4°F9.1°C 62.3°F16.8°C
Dew Point 64.1°F17.8°C 48.1°F8.9°C 54.5°F12.5°C
Winds 8.1 mph 13.0 kmh Calm Calm 3.0 mph S4.8 kmh S
Wind Gusts 10.4 mph16.7 kmh -- 5.0 mph8.0 kmh
Humidity 99% 48% 78%
Pressure 30.09 in1019.0 mb 29.97 in1014.9 mb -
Precipitation 0.00 in0.0 mm - -
Hour Temp Dew Point Humidity Winds Wind Gusts Pressure Precip Precip Rate Daily Precip Total
12:00 AM 55.0°F12.8°C 53.6°F12.0°C 95% 3.5 mph NW5.6 kmh NW 5.8 mph9.3 kmh 30.03 in1016.9 mb - 0.00 in0.0 mm 0.00 in0.0 mm
12:10 AM 54.9°F12.7°C 53.5°F11.9°C 95% 3.5 mph W5.6 kmh W 6.9 mph11.1 kmh 30.06 in1017.9 mb - 0.00 in0.0 mm 0.00 in0.0 mm
12:15 AM 54.9°F12.7°C 53.5°F11.9°C 95% 3.5 mph SW5.6 kmh SW 5.8 mph9.3 kmh 30.06 in1017.9 mb - 0.00 in0.0 mm 0.00 in0.0 mm
12:20 AM 54.7°F12.6°C 53.3°F11.8°C 95% 4.6 mph NW7.4 kmh NW 5.8 mph9.3 kmh 30.06 in1017.9 mb - 0.00 in0.0 mm 0.00 in0.0 mm
12:25 AM 54.5°F12.5°C 53.4°F11.9°C 96% 2.3 mph NW3.7 kmh NW 3.5 mph5.6 kmh 30.06 in1017.9 mb - 0.00 in0.0 mm 0.00 in0.0 mm
12:30 AM 54.3°F12.4°C 53.2°F11.8°C 96% 2.3 mph NW3.7 kmh NW 4.6 mph7.4 kmh 30.06 in1017.9 mb - 0.00 in0.0 mm 0.00 in0.0 mm
12:35 AM 54.1°F12.3°C 53.0°F11.7°C 96% 4.6 mph WNW7.4 kmh WNW 5.8 mph9.3 kmh 30.06 in1017.9 mb - 0.00 in0.0 mm 0.00 in0.0 mm
12:40 AM 54.1°F12.3°C 53.0°F11.7°C 96% 5.8 mph WSW9.3 kmh WSW 5.8 mph9.3 kmh 30.06 in1017.9 mb - 0.00 in0.0 mm 0.00 in0.0 mm
12:45 AM 54.1°F12.3°C 53.0°F11.7°C 96% 3.5 mph W5.6 kmh W 6.9 mph11.1 kmh 30.06 in1017.9 mb - 0.00 in0.0 mm 0.00 in0.0 mm
12:50 AM 54.0°F12.2°C 52.8°F11.6°C 96% 3.5 mph W5.6 kmh W 4.6 mph7.4 kmh 30.06 in1017.9 mb - 0.00 in0.0 mm 0.00 in0.0 mm
12:55 AM 53.8°F12.1°C 52.7°F11.5°C 96% 3.5 mph NW5.6 kmh NW 5.8 mph9.3 kmh 30.06 in1017.9 mb - 0.00 in0.0 mm 0.00 in0.0 mm
01:00 AM 53.8°F12.1°C 52.9°F11.6°C 97% 3.5 mph NW5.6 kmh NW 4.6 mph7.4 kmh 30.06 in1017.9 mb - 0.00 in0.0 mm 0.00 in0.0 mm
01:10 AM 53.6°F12.0°C 52.8°F11.6°C 97% 3.5 mph W5.6 kmh W 5.8 mph9.3 kmh 30.06 in1017.9 mb - 0.00 in0.0 mm 0.00 in0.0 mm
01:15 AM 53.2°F11.8°C 52.7°F11.5°C 98% 5.8 mph W9.3 kmh W 5.8 mph9.3 kmh 30.06 in1017.9 mb - 0.00 in0.0 mm 0.00 in0.0 mm
01:20 AM 53.1°F11.7°C 52.5°F11.4°C 98% 3.5 mph NW5.6 kmh NW 5.8 mph9.3 kmh 30.06 in1017.9 mb - 0.00 in0.0 mm 0.00 in0.0 mm
01:25 AM 53.1°F11.7°C 52.5°F11.4°C 98% 5.8 mph NW9.3 kmh NW 6.9 mph11.1 kmh 30.06 in1017.9 mb - 0.00 in0.0 mm 0.00 in0.0 mm
01:30 AM 53.1°F11.7°C 52.5°F11.4°C 98% 2.3 mph W3.7 kmh W 5.8 mph9.3 kmh 30.06 in1017.9 mb - 0.00 in0.0 mm 0.00 in0.0 mm
01:35 AM 52.9°F11.6°C 52.3°F11.3°C 98% 5.8 mph W9.3 kmh W 8.1 mph13.0 kmh 30.06 in1017.9 mb - 0.00 in0.0 mm 0.00 in0.0 mm
01:40 AM 52.9°F11.6°C 52.3°F11.3°C 98% 3.5 mph W5.6 kmh W 5.8 mph9.3 kmh 30.06 in1017.9 mb - 0.00 in0.0 mm 0.00 in0.0 mm
01:45 AM 52.7°F11.5°C 52.2°F11.2°C 98% 2.3 mph W3.7 kmh W 4.6 mph7.4 kmh 30.06 in1017.9 mb - 0.00 in0.0 mm 0.00 in0.0 mm
01:50 AM 52.7°F11.5°C 52.2°F11.2°C 98% 2.3 mph W3.7 kmh W 4.6 mph7.4 kmh 30.06 in1017.9 mb - 0.00 in0.0 mm 0.00 in0.0 mm
01:55 AM 52.5°F11.4°C 52.0°F11.1°C 98% 2.3 mph W3.7 kmh W 3.5 mph5.6 kmh 30.06 in1017.9 mb - 0.00 in0.0 mm 0.00 in0.0 mm
02:00 AM 52.5°F11.4°C 52.0°F11.1°C 98% 1.2 mph SW1.9 kmh SW 2.3 mph3.7 kmh 30.06 in1017.9 mb - 0.00 in0.0 mm 0.00 in0.0 mm
02:10 AM 52.3°F11.3°C 51.8°F11.0°C 98% Calm Calm -- 30.06 in1017.9 mb - 0.00 in0.0 mm 0.00 in0.0 mm
02:15 AM 52.2°F11.2°C 51.6°F10.9°C 98% 2.3 mph W3.7 kmh W 3.5 mph5.6 kmh 30.06 in1017.9 mb - 0.00 in0.0 mm 0.00 in0.0 mm
02:20 AM 52.0°F11.1°C 51.4°F10.8°C 98% 3.5 mph SW5.6 kmh SW 3.5 mph5.6 kmh 30.06 in1017.9 mb - 0.00 in0.0 mm 0.00 in0.0 mm
02:25 AM 51.8°F11.0°C 51.3°F10.7°C 98% 3.5 mph W5.6 kmh W 3.5 mph5.6 kmh 30.06 in1017.9 mb - 0.00 in0.0 mm 0.00 in0.0 mm
02:30 AM 51.6°F10.9°C 51.3°F10.7°C 99% 3.5 mph W5.6 kmh W 4.6 mph7.4 kmh 30.06 in1017.9 mb - 0.00 in0.0 mm 0.00 in0.0 mm
02:35 AM 51.6°F10.9°C 51.3°F10.7°C 99% 4.6 mph W7.4 kmh W 5.8 mph9.3 kmh 30.06 in1017.9 mb - 0.00 in0.0 mm 0.00 in0.0 mm
02:40 AM 51.4°F10.8°C 51.2°F10.7°C 99% 2.3 mph W3.7 kmh W 3.5 mph5.6 kmh 30.06 in1017.9 mb - 0.00 in0.0 mm 0.00 in0.0 mm
02:45 AM 51.4°F10.8°C 51.2°F10.7°C 99% 2.3 mph W3.7 kmh W 5.8 mph9.3 kmh 30.06 in1017.9 mb - 0.00 in0.0 mm 0.00 in0.0 mm
02:50 AM 51.4°F10.8°C 51.2°F10.7°C 99% 2.3 mph W3.7 kmh W 3.5 mph5.6 kmh 30.06 in1017.9 mb - 0.00 in0.0 mm 0.00 in0.0 mm
02:55 AM 51.4°F10.8°C 51.2°F10.7°C 99% 2.3 mph W3.7 kmh W 3.5 mph5.6 kmh 30.06 in1017.9 mb - 0.00 in0.0 mm 0.00 in0.0 mm
03:00 AM 51.4°F10.8°C 51.2°F10.7°C 99% 2.3 mph NW3.7 kmh NW 3.5 mph5.6 kmh 30.06 in1017.9 mb - 0.00 in0.0 mm 0.00 in0.0 mm
03:10 AM 51.3°F10.7°C 51.0°F10.6°C 99% 2.3 mph SW3.7 kmh SW 5.8 mph9.3 kmh 30.06 in1017.9 mb - 0.00 in0.0 mm 0.00 in0.0 mm
03:15 AM 51.3°F10.7°C 51.0°F10.6°C 99% 4.6 mph W7.4 kmh W 5.8 mph9.3 kmh 30.06 in1017.9 mb - 0.00 in0.0 mm 0.00 in0.0 mm
03:20 AM 51.3°F10.7°C 51.0°F10.6°C 99% 5.8 mph W9.3 kmh W 8.1 mph13.0 kmh 30.06 in1017.9 mb - 0.00 in0.0 mm 0.00 in0.0 mm
03:25 AM 51.1°F10.6°C 50.8°F10.4°C 99% 3.5 mph NW5.6 kmh NW 4.6 mph7.4 kmh 30.06 in1017.9 mb - 0.00 in0.0 mm 0.00 in0.0 mm
03:30 AM 50.9°F10.5°C 50.6°F10.3°C 99% 3.5 mph NW5.6 kmh NW 5.8 mph9.3 kmh 30.06 in1017.9 mb - 0.00 in0.0 mm 0.00 in0.0 mm
03:35 AM 50.7°F10.4°C 50.5°F10.3°C 99% 2.3 mph WSW3.7 kmh WSW 4.6 mph7.4 kmh 30.06 in1017.9 mb - 0.00 in0.0 mm 0.00 in0.0 mm
03:40 AM 50.7°F10.4°C 50.4°F10.2°C 99% 2.3 mph W3.7 kmh W 3.5 mph5.6 kmh 30.06 in1017.9 mb - 0.00 in0.0 mm 0.00 in0.0 mm
03:45 AM 50.7°F10.4°C 50.4°F10.2°C 99% 2.3 mph W3.7 kmh W 5.8 mph9.3 kmh 30.06 in1017.9 mb - 0.00 in0.0 mm 0.00 in0.0 mm
03:50 AM 50.7°F10.4°C 50.4°F10.2°C 99% 2.3 mph W3.7 kmh W 5.8 mph9.3 kmh 30.06 in1017.9 mb - 0.00 in0.0 mm 0.00 in0.0 mm
03:55 AM 50.7°F10.4°C 50.4°F10.2°C 99% 5.8 mph NW9.3 kmh NW 8.1 mph13.0 kmh 30.06 in1017.9 mb - 0.00 in0.0 mm 0.00 in0.0 mm
04:00 AM 50.7°F10.4°C 50.4°F10.2°C 99% 5.8 mph NW9.3 kmh NW 8.1 mph13.0 kmh 30.06 in1017.9 mb - 0.00 in0.0 mm 0.00 in0.0 mm
04:10 AM 50.5°F10.3°C 50.3°F10.2°C 99% 3.5 mph NW5.6 kmh NW 6.9 mph11.1 kmh 30.03 in1016.9 mb - 0.00 in0.0 mm 0.00 in0.0 mm
04:15 AM 50.4°F10.2°C 50.1°F10.1°C 99% 3.5 mph NW5.6 kmh NW 4.6 mph7.4 kmh 30.03 in1016.9 mb - 0.00 in0.0 mm 0.00 in0.0 mm
04:20 AM 50.4°F10.2°C 50.1°F10.1°C 99% 3.5 mph W5.6 kmh W 4.6 mph7.4 kmh 30.03 in1016.9 mb - 0.00 in0.0 mm 0.00 in0.0 mm
04:25 AM 50.4°F10.2°C 50.1°F10.1°C 99% 1.2 mph W1.9 kmh W 4.6 mph7.4 kmh 30.03 in1016.9 mb - 0.00 in0.0 mm 0.00 in0.0 mm
04:30 AM 50.2°F10.1°C 49.9°F9.9°C 99% 1.2 mph W1.9 kmh W 3.5 mph5.6 kmh 30.03 in1016.9 mb - 0.00 in0.0 mm 0.00 in0.0 mm
04:35 AM 50.2°F10.1°C 49.9°F9.9°C 99% 4.6 mph W7.4 kmh W 5.8 mph9.3 kmh 30.03 in1016.9 mb - 0.00 in0.0 mm 0.00 in0.0 mm
04:40 AM 50.2°F10.1°C 49.9°F9.9°C 99% 2.3 mph WNW3.7 kmh WNW 5.8 mph9.3 kmh 30.03 in1016.9 mb - 0.00 in0.0 mm 0.00 in0.0 mm
04:45 AM 50.2°F10.1°C 49.9°F9.9°C 99% 1.2 mph W1.9 kmh W 3.5 mph5.6 kmh 30.03 in1016.9 mb - 0.00 in0.0 mm 0.00 in0.0 mm
04:50 AM 50.2°F10.1°C 49.9°F9.9°C 99% 2.3 mph NW3.7 kmh NW 5.8 mph9.3 kmh 30.03 in1016.9 mb - 0.00 in0.0 mm 0.00 in0.0 mm
04:55 AM 50.2°F10.1°C 49.9°F9.9°C 99% 3.5 mph W5.6 kmh W 5.8 mph9.3 kmh 30.03 in1016.9 mb - 0.00 in0.0 mm 0.00 in0.0 mm
05:00 AM 50.2°F10.1°C 49.9°F9.9°C 99% 5.8 mph NW9.3 kmh NW 6.9 mph11.1 kmh 30.03 in1016.9 mb - 0.00 in0.0 mm 0.00 in0.0 mm
05:10 AM 50.2°F10.1°C 49.9°F9.9°C 99% 5.8 mph WNW9.3 kmh WNW 8.1 mph13.0 kmh 30.03 in1016.9 mb - 0.00 in0.0 mm 0.00 in0.0 mm
05:15 AM 50.0°F10.0°C 49.7°F9.8°C 99% 5.8 mph W9.3 kmh W 6.9 mph11.1 kmh 30.03 in1016.9 mb - 0.00 in0.0 mm 0.00 in0.0 mm
05:20 AM 50.0°F10.0°C 49.7°F9.8°C 99% 3.5 mph W5.6 kmh W 4.6 mph7.4 kmh 30.03 in1016.9 mb - 0.00 in0.0 mm 0.00 in0.0 mm
05:25 AM 50.0°F10.0°C 49.7°F9.8°C 99% 3.5 mph W5.6 kmh W 4.6 mph7.4 kmh 30.03 in1016.9 mb - 0.00 in0.0 mm 0.00 in0.0 mm
05:30 AM 50.0°F10.0°C 49.7°F9.8°C 99% 4.6 mph W7.4 kmh W 5.8 mph9.3 kmh 30.03 in1016.9 mb - 0.00 in0.0 mm 0.00 in0.0 mm
05:35 AM 50.0°F10.0°C 49.7°F9.8°C 99% 5.8 mph W9.3 kmh W 6.9 mph11.1 kmh 30.03 in1016.9 mb - 0.00 in0.0 mm 0.00 in0.0 mm
05:40 AM 49.8°F9.9°C 49.6°F9.8°C 99% 5.8 mph W9.3 kmh W 5.8 mph9.3 kmh 30.03 in1016.9 mb - 0.00 in0.0 mm 0.00 in0.0 mm
05:45 AM 49.8°F9.9°C 49.6°F9.8°C 99% 2.3 mph W3.7 kmh W 4.6 mph7.4 kmh 30.03 in1016.9 mb - 0.00 in0.0 mm 0.00 in0.0 mm
05:50 AM 49.8°F9.9°C 49.6°F9.8°C 99% 3.5 mph W5.6 kmh W 4.6 mph7.4 kmh 30.03 in1016.9 mb - 0.00 in0.0 mm 0.00 in0.0 mm
05:55 AM 49.8°F9.9°C 49.6°F9.8°C 99% 2.3 mph NW3.7 kmh NW 3.5 mph5.6 kmh 30.03 in1016.9 mb - 0.00 in0.0 mm 0.00 in0.0 mm
06:00 AM 49.6°F9.8°C 49.4°F9.7°C 99% Calm Calm 1.2 mph1.9 kmh 30.03 in1016.9 mb - 0.00 in0.0 mm 0.00 in0.0 mm
06:10 AM 49.5°F9.7°C 49.2°F9.6°C 99% 3.5 mph W5.6 kmh W 3.5 mph5.6 kmh 30.03 in1016.9 mb - 0.00 in0.0 mm 0.00 in0.0 mm
06:15 AM 49.3°F9.6°C 49.0°F9.4°C 99% 3.5 mph SW5.6 kmh SW 4.6 mph7.4 kmh 30.03 in1016.9 mb - 0.00 in0.0 mm 0.00 in0.0 mm
06:20 AM 49.3°F9.6°C 49.0°F9.4°C 99% 2.3 mph WSW3.7 kmh WSW 3.5 mph5.6 kmh 30.03 in1016.9 mb - 0.00 in0.0 mm 0.00 in0.0 mm
06:25 AM 49.3°F9.6°C 49.0°F9.4°C 99% 2.3 mph W3.7 kmh W 3.5 mph5.6 kmh 30.03 in1016.9 mb - 0.00 in0.0 mm 0.00 in0.0 mm
06:30 AM 49.1°F9.5°C 48.8°F9.3°C 99% 2.3 mph W3.7 kmh W 3.5 mph5.6 kmh 30.03 in1016.9 mb - 0.00 in0.0 mm 0.00 in0.0 mm
06:35 AM 49.1°F9.5°C 48.8°F9.3°C 99% 1.2 mph W1.9 kmh W 2.3 mph3.7 kmh 30.03 in1016.9 mb - 0.00 in0.0 mm 0.00 in0.0 mm
06:40 AM 48.9°F9.4°C 48.7°F9.3°C 99% 1.2 mph WSW1.9 kmh WSW 3.5 mph5.6 kmh 30.03 in1016.9 mb - 0.00 in0.0 mm 0.00 in0.0 mm
06:45 AM 48.7°F9.3°C 48.5°F9.2°C 99% 2.3 mph NW3.7 kmh NW 3.5 mph5.6 kmh 30.03 in1016.9 mb - 0.00 in0.0 mm 0.00 in0.0 mm
06:50 AM 48.6°F9.2°C 48.3°F9.1°C 99% 3.5 mph W5.6 kmh W 4.6 mph7.4 kmh 30.03 in1016.9 mb - 0.00 in0.0 mm 0.00 in0.0 mm
06:55 AM 48.4°F9.1°C 48.1°F8.9°C 99% 3.5 mph WSW5.6 kmh WSW 5.8 mph9.3 kmh 30.03 in1016.9 mb - 0.00 in0.0 mm 0.00 in0.0 mm
07:00 AM 48.4°F9.1°C 48.1°F8.9°C 99% 3.5 mph SW5.6 kmh SW 5.8 mph9.3 kmh 30.03 in1016.9 mb - 0.00 in0.0 mm 0.00 in0.0 mm
07:10 AM 48.4°F9.1°C 48.1°F8.9°C 99% 1.2 mph W1.9 kmh W 3.5 mph5.6 kmh 30.06 in1017.9 mb - 0.00 in0.0 mm 0.00 in0.0 mm
07:15 AM 48.4°F9.1°C 48.1°F8.9°C 99% 2.3 mph W3.7 kmh W 3.5 mph5.6 kmh 30.06 in1017.9 mb - 0.00 in0.0 mm 0.00 in0.0 mm
07:20 AM 48.4°F9.1°C 48.1°F8.9°C 99% 3.5 mph NW5.6 kmh NW 4.6 mph7.4 kmh 30.06 in1017.9 mb - 0.00 in0.0 mm 0.00 in0.0 mm
07:25 AM 48.4°F9.1°C 48.1°F8.9°C 99% 3.5 mph SW5.6 kmh SW 3.5 mph5.6 kmh 30.06 in1017.9 mb - 0.00 in0.0 mm 0.00 in0.0 mm
07:30 AM 48.4°F9.1°C 48.1°F8.9°C 99% 2.3 mph W3.7 kmh W 3.5 mph5.6 kmh 30.06 in1017.9 mb - 0.00 in0.0 mm 0.00 in0.0 mm
07:35 AM 48.5°F9.2°C 48.3°F9.1°C 99% 3.5 mph W5.6 kmh W 3.5 mph5.6 kmh 30.06 in1017.9 mb - 0.00 in0.0 mm 0.00 in0.0 mm
07:40 AM 48.6°F9.2°C 48.3°F9.1°C 99% Calm Calm 2.3 mph3.7 kmh 30.06 in1017.9 mb - 0.00 in0.0 mm 0.00 in0.0 mm
07:45 AM 48.6°F9.2°C 48.3°F9.1°C 99% Calm Calm -- 30.06 in1017.9 mb - 0.00 in0.0 mm 0.00 in0.0 mm
07:50 AM 48.9°F9.4°C 48.6°F9.2°C 99% Calm Calm -- 30.06 in1017.9 mb - 0.00 in0.0 mm 0.00 in0.0 mm
07:55 AM 49.3°F9.6°C 49.0°F9.4°C 99% Calm Calm -- 30.06 in1017.9 mb - 0.00 in0.0 mm 0.00 in0.0 mm
08:00 AM 49.8°F9.9°C 49.5°F9.7°C 99% Calm Calm -- 30.06 in1017.9 mb - 0.00 in0.0 mm 0.00 in0.0 mm
08:10 AM 50.9°F10.5°C 50.6°F10.3°C 99% Calm Calm -- 30.06 in1017.9 mb - 0.00 in0.0 mm 0.00 in0.0 mm
08:15 AM 51.1°F10.6°C 50.8°F10.4°C 99% 1.2 mph W1.9 kmh W 3.5 mph5.6 kmh 30.06 in1017.9 mb - 0.00 in0.0 mm 0.00 in0.0 mm
08:20 AM 51.3°F10.7°C 51.0°F10.6°C 99% 3.5 mph W5.6 kmh W 4.6 mph7.4 kmh 30.06 in1017.9 mb - 0.00 in0.0 mm 0.00 in0.0 mm
08:25 AM 51.8°F11.0°C 51.2°F10.7°C 98% 4.6 mph W7.4 kmh W 5.8 mph9.3 kmh 30.06 in1017.9 mb - 0.00 in0.0 mm 0.00 in0.0 mm
08:30 AM 52.1°F11.2°C 51.6°F10.9°C 98% 4.6 mph W7.4 kmh W 5.8 mph9.3 kmh 30.06 in1017.9 mb - 0.00 in0.0 mm 0.00 in0.0 mm
08:35 AM 52.7°F11.5°C 52.1°F11.2°C 98% 4.6 mph W7.4 kmh W 5.8 mph9.3 kmh 30.06 in1017.9 mb - 0.00 in0.0 mm 0.00 in0.0 mm
08:40 AM 53.1°F11.7°C 52.5°F11.4°C 98% 3.5 mph SW5.6 kmh SW 4.6 mph7.4 kmh 30.06 in1017.9 mb - 0.00 in0.0 mm 0.00 in0.0 mm
08:45 AM 53.6°F12.0°C 52.8°F11.6°C 97% 1.2 mph SW1.9 kmh SW 3.5 mph5.6 kmh 30.06 in1017.9 mb - 0.00 in0.0 mm 0.00 in0.0 mm
08:50 AM 53.9°F12.2°C 53.1°F11.7°C 97% 1.2 mph W1.9 kmh W 2.3 mph3.7 kmh 30.06 in1017.9 mb - 0.00 in0.0 mm 0.00 in0.0 mm
08:55 AM 54.1°F12.3°C 53.3°F11.8°C 97% 2.3 mph W3.7 kmh W 4.6 mph7.4 kmh 30.06 in1017.9 mb - 0.00 in0.0 mm 0.00 in0.0 mm
09:00 AM 54.7°F12.6°C 53.8°F12.1°C 97% 3.5 mph W5.6 kmh W 5.8 mph9.3 kmh 30.06 in1017.9 mb - 0.00 in0.0 mm 0.00 in0.0 mm
09:10 AM 55.2°F12.9°C 54.4°F12.4°C 97% 3.5 mph W5.6 kmh W 5.8 mph9.3 kmh 30.06 in1017.9 mb - 0.00 in0.0 mm 0.00 in0.0 mm
09:15 AM 55.9°F13.3°C 55.6°F13.1°C 99% 3.5 mph W5.6 kmh W 4.6 mph7.4 kmh 30.06 in1017.9 mb - 0.00 in0.0 mm 0.00 in0.0 mm
09:20 AM 56.8°F13.8°C 56.5°F13.6°C 99% 3.5 mph W5.6 kmh W 4.6 mph7.4 kmh 30.06 in1017.9 mb - 0.00 in0.0 mm 0.00 in0.0 mm
09:25 AM 57.5°F14.2°C 57.3°F14.1°C 99% 1.2 mph NW1.9 kmh NW 4.6 mph7.4 kmh 30.06 in1017.9 mb - 0.00 in0.0 mm 0.00 in0.0 mm
09:30 AM 57.9°F14.4°C 57.4°F14.1°C 98% 1.2 mph W1.9 kmh W 1.2 mph1.9 kmh 30.06 in1017.9 mb - 0.00 in0.0 mm 0.00 in0.0 mm
09:35 AM 58.4°F14.7°C 57.9°F14.4°C 98% Calm Calm -- 30.06 in1017.9 mb - 0.00 in0.0 mm 0.00 in0.0 mm
09:40 AM 59.0°F15.0°C 58.2°F14.6°C 97% Calm Calm -- 30.06 in1017.9 mb - 0.00 in0.0 mm 0.00 in0.0 mm
09:45 AM 59.7°F15.4°C 58.9°F14.9°C 97% Calm Calm -- 30.06 in1017.9 mb - 0.00 in0.0 mm 0.00 in0.0 mm
09:50 AM 60.4°F15.8°C 59.6°F15.3°C 97% Calm Calm -- 30.06 in1017.9 mb - 0.00 in0.0 mm 0.00 in0.0 mm
09:55 AM 61.7°F16.5°C 60.8°F16.0°C 97% 1.2 mph SW1.9 kmh SW 2.3 mph3.7 kmh 30.06 in1017.9 mb - 0.00 in0.0 mm 0.00 in0.0 mm
10:00 AM 62.8°F17.1°C 61.3°F16.3°C 95% 1.2 mph NW1.9 kmh NW 1.2 mph1.9 kmh 30.06 in1017.9 mb - 0.00 in0.0 mm 0.00 in0.0 mm
10:10 AM 64.9°F18.3°C 63.5°F17.5°C 95% Calm Calm -- 30.09 in1019.0 mb - 0.00 in0.0 mm 0.00 in0.0 mm
10:15 AM 65.8°F18.8°C 64.1°F17.8°C 94% 2.3 mph E3.7 kmh E 3.5 mph5.6 kmh 30.09 in1019.0 mb - 0.00 in0.0 mm 0.00 in0.0 mm
10:20 AM 66.5°F19.2°C 63.5°F17.5°C 90% 2.3 mph E3.7 kmh E 3.5 mph5.6 kmh 30.09 in1019.0 mb - 0.00 in0.0 mm 0.00 in0.0 mm
10:25 AM 67.1°F19.5°C 63.1°F17.3°C 87% 2.3 mph E3.7 kmh E 3.5 mph5.6 kmh 30.09 in1019.0 mb - 0.00 in0.0 mm 0.00 in0.0 mm
10:30 AM 67.8°F19.9°C 63.1°F17.3°C 85% 1.2 mph SE1.9 kmh SE 2.3 mph3.7 kmh 30.09 in1019.0 mb - 0.00 in0.0 mm 0.00 in0.0 mm
10:35 AM 68.5°F20.3°C 63.2°F17.3°C 83% 3.5 mph SE5.6 kmh SE 3.5 mph5.6 kmh 30.09 in1019.0 mb - 0.00 in0.0 mm 0.00 in0.0 mm
10:40 AM 69.4°F20.8°C 63.7°F17.6°C 82% 1.2 mph SE1.9 kmh SE 2.3 mph3.7 kmh 30.09 in1019.0 mb - 0.00 in0.0 mm 0.00 in0.0 mm
10:45 AM 70.3°F21.3°C 62.8°F17.1°C 77% 1.2 mph E1.9 kmh E 3.5 mph5.6 kmh 30.09 in1019.0 mb - 0.00 in0.0 mm 0.00 in0.0 mm
10:50 AM 70.9°F21.6°C 62.2°F16.8°C 74% 2.3 mph E3.7 kmh E 4.6 mph7.4 kmh 30.09 in1019.0 mb - 0.00 in0.0 mm 0.00 in0.0 mm
10:55 AM 71.2°F21.8°C 61.7°F16.5°C 72% 6.9 mph E11.1 kmh E 9.2 mph14.8 kmh 30.09 in1019.0 mb - 0.00 in0.0 mm 0.00 in0.0 mm
11:00 AM 71.2°F21.8°C 59.7°F15.4°C 67% 5.8 mph E9.3 kmh E 8.1 mph13.0 kmh 30.09 in1019.0 mb - 0.00 in0.0 mm 0.00 in0.0 mm
11:10 AM 71.4°F21.9°C 59.0°F15.0°C 65% 4.6 mph ENE7.4 kmh ENE 6.9 mph11.1 kmh 30.09 in1019.0 mb - 0.00 in0.0 mm 0.00 in0.0 mm
11:15 AM 71.6°F22.0°C 58.8°F14.9°C 64% 6.9 mph E11.1 kmh E 8.1 mph13.0 kmh 30.09 in1019.0 mb - 0.00 in0.0 mm 0.00 in0.0 mm
11:20 AM 71.9°F22.2°C 58.7°F14.8°C 63% 5.8 mph E9.3 kmh E 8.1 mph13.0 kmh 30.09 in1019.0 mb - 0.00 in0.0 mm 0.00 in0.0 mm
11:25 AM 72.1°F22.3°C 58.8°F14.9°C 63% 8.1 mph E13.0 kmh E 10.4 mph16.7 kmh 30.09 in1019.0 mb - 0.00 in0.0 mm 0.00 in0.0 mm
11:30 AM 72.1°F22.3°C 58.4°F14.7°C 62% 8.1 mph E13.0 kmh E 10.4 mph16.7 kmh 30.09 in1019.0 mb - 0.00 in0.0 mm 0.00 in0.0 mm
11:35 AM 72.3°F22.4°C 58.6°F14.8°C 62% 6.9 mph E11.1 kmh E 8.1 mph13.0 kmh 30.09 in1019.0 mb - 0.00 in0.0 mm 0.00 in0.0 mm
11:40 AM 72.5°F22.5°C 58.7°F14.8°C 62% 6.9 mph E11.1 kmh E 9.2 mph14.8 kmh 30.09 in1019.0 mb - 0.00 in0.0 mm 0.00 in0.0 mm
11:45 AM 72.7°F22.6°C 58.9°F14.9°C 62% 6.9 mph SE11.1 kmh SE 10.4 mph16.7 kmh 30.09 in1019.0 mb - 0.00 in0.0 mm 0.00 in0.0 mm
11:50 AM 72.2°F22.3°C 58.0°F14.4°C 61% 8.1 mph E13.0 kmh E 10.4 mph16.7 kmh 30.09 in1019.0 mb - 0.00 in0.0 mm 0.00 in0.0 mm
11:55 AM 71.4°F21.9°C 57.7°F14.3°C 62% 5.8 mph E9.3 kmh E 9.2 mph14.8 kmh 30.09 in1019.0 mb - 0.00 in0.0 mm 0.00 in0.0 mm
12:00 PM 70.9°F21.6°C 57.7°F14.3°C 63% 4.6 mph E7.4 kmh E 8.1 mph13.0 kmh 30.09 in1019.0 mb - 0.00 in0.0 mm 0.00 in0.0 mm
12:10 PM 70.2°F21.2°C 57.8°F14.3°C 65% 3.5 mph E5.6 kmh E 5.8 mph9.3 kmh 30.09 in1019.0 mb - 0.00 in0.0 mm 0.00 in0.0 mm
12:15 PM 69.8°F21.0°C 57.5°F14.2°C 65% 5.8 mph E9.3 kmh E 5.8 mph9.3 kmh 30.09 in1019.0 mb - 0.00 in0.0 mm 0.00 in0.0 mm
12:20 PM 69.5°F20.8°C 58.0°F14.4°C 67% 5.8 mph E9.3 kmh E 8.1 mph13.0 kmh 30.09 in1019.0 mb - 0.00 in0.0 mm 0.00 in0.0 mm
12:25 PM 69.4°F20.8°C 58.4°F14.7°C 68% 4.6 mph E7.4 kmh E 8.1 mph13.0 kmh 30.09 in1019.0 mb - 0.00 in0.0 mm 0.00 in0.0 mm
12:30 PM 69.4°F20.8°C 58.4°F14.7°C 68% 3.5 mph E5.6 kmh E 5.8 mph9.3 kmh 30.09 in1019.0 mb - 0.00 in0.0 mm 0.00 in0.0 mm
12:35 PM 70.1°F21.2°C 59.1°F15.1°C 68% 5.8 mph SE9.3 kmh SE 8.1 mph13.0 kmh 30.09 in1019.0 mb - 0.00 in0.0 mm 0.00 in0.0 mm
12:40 PM 70.5°F21.4°C 59.0°F15.0°C 67% 8.1 mph E13.0 kmh E 10.4 mph16.7 kmh 30.09 in1019.0 mb - 0.00 in0.0 mm 0.00 in0.0 mm
12:45 PM 70.7°F21.5°C 58.8°F14.9°C 66% 6.9 mph E11.1 kmh E 9.2 mph14.8 kmh 30.09 in1019.0 mb - 0.00 in0.0 mm 0.00 in0.0 mm
12:50 PM 71.0°F21.7°C 58.7°F14.8°C 65% 4.6 mph E7.4 kmh E 6.9 mph11.1 kmh 30.09 in1019.0 mb - 0.00 in0.0 mm 0.00 in0.0 mm
12:55 PM 71.4°F21.9°C 59.0°F15.0°C 65% 4.6 mph E7.4 kmh E 5.8 mph9.3 kmh 30.09 in1019.0 mb - 0.00 in0.0 mm 0.00 in0.0 mm
01:00 PM 72.0°F22.2°C 58.7°F14.8°C 63% 3.5 mph ESE5.6 kmh ESE 6.9 mph11.1 kmh 30.09 in1019.0 mb - 0.00 in0.0 mm 0.00 in0.0 mm
01:10 PM 73.0°F22.8°C 58.8°F14.9°C 61% 5.8 mph ENE9.3 kmh ENE 9.2 mph14.8 kmh 30.06 in1017.9 mb - 0.00 in0.0 mm 0.00 in0.0 mm
01:15 PM 72.3°F22.4°C 56.7°F13.7°C 58% 3.5 mph E5.6 kmh E 5.8 mph9.3 kmh 30.06 in1017.9 mb - 0.00 in0.0 mm 0.00 in0.0 mm
01:20 PM 72.5°F22.5°C 57.4°F14.1°C 59% 3.5 mph E5.6 kmh E 5.8 mph9.3 kmh 30.06 in1017.9 mb - 0.00 in0.0 mm 0.00 in0.0 mm
01:25 PM 72.7°F22.6°C 58.0°F14.4°C 60% 4.6 mph E7.4 kmh E 5.8 mph9.3 kmh 30.06 in1017.9 mb - 0.00 in0.0 mm 0.00 in0.0 mm
01:30 PM 73.2°F22.9°C 56.6°F13.7°C 56% 2.3 mph E3.7 kmh E 5.8 mph9.3 kmh 30.06 in1017.9 mb - 0.00 in0.0 mm 0.00 in0.0 mm
01:35 PM 74.1°F23.4°C 57.4°F14.1°C 56% 5.8 mph E9.3 kmh E 8.1 mph13.0 kmh 30.06 in1017.9 mb - 0.00 in0.0 mm 0.00 in0.0 mm
01:40 PM 75.0°F23.9°C 58.2°F14.6°C 56% 5.8 mph NE9.3 kmh NE 8.1 mph13.0 kmh 30.06 in1017.9 mb - 0.00 in0.0 mm 0.00 in0.0 mm
01:45 PM 75.4°F24.1°C 57.0°F13.9°C 53% 2.3 mph SE3.7 kmh SE 8.1 mph13.0 kmh 30.06 in1017.9 mb - 0.00 in0.0 mm 0.00 in0.0 mm
01:50 PM 75.9°F24.4°C 56.5°F13.6°C 51% 3.5 mph E5.6 kmh E 5.8 mph9.3 kmh 30.06 in1017.9 mb - 0.00 in0.0 mm 0.00 in0.0 mm
01:55 PM 76.1°F24.5°C 56.1°F13.4°C 50% 4.6 mph E7.4 kmh E 8.1 mph13.0 kmh 30.06 in1017.9 mb - 0.00 in0.0 mm 0.00 in0.0 mm
02:00 PM 76.5°F24.7°C 57.0°F13.9°C 51% 6.9 mph E11.1 kmh E 10.4 mph16.7 kmh 30.06 in1017.9 mb - 0.00 in0.0 mm 0.00 in0.0 mm
02:10 PM 75.9°F24.4°C 55.4°F13.0°C 49% 4.6 mph E7.4 kmh E 8.1 mph13.0 kmh 30.03 in1016.9 mb - 0.00 in0.0 mm 0.00 in0.0 mm
02:15 PM 75.2°F24.0°C 55.3°F12.9°C 50% 5.8 mph E9.3 kmh E 8.1 mph13.0 kmh 30.03 in1016.9 mb - 0.00 in0.0 mm 0.00 in0.0 mm
02:20 PM 74.5°F23.6°C 56.2°F13.4°C 53% 3.5 mph E5.6 kmh E 4.6 mph7.4 kmh 30.03 in1016.9 mb - 0.00 in0.0 mm 0.00 in0.0 mm
02:25 PM 74.0°F23.3°C 56.3°F13.5°C 54% 3.5 mph E5.6 kmh E 5.8 mph9.3 kmh 30.03 in1016.9 mb - 0.00 in0.0 mm 0.00 in0.0 mm
02:30 PM 73.6°F23.1°C 55.9°F13.3°C 54% 3.5 mph NE5.6 kmh NE 5.8 mph9.3 kmh 30.03 in1016.9 mb - 0.00 in0.0 mm 0.00 in0.0 mm
02:35 PM 73.4°F23.0°C 55.7°F13.2°C 54% 3.5 mph E5.6 kmh E 5.8 mph9.3 kmh 30.03 in1016.9 mb - 0.00 in0.0 mm 0.00 in0.0 mm
02:40 PM 73.4°F23.0°C 56.2°F13.4°C 55% 3.5 mph E5.6 kmh E 3.5 mph5.6 kmh 30.03 in1016.9 mb - 0.00 in0.0 mm 0.00 in0.0 mm
02:45 PM 73.2°F22.9°C 56.6°F13.7°C 56% 3.5 mph E5.6 kmh E 4.6 mph7.4 kmh 30.03 in1016.9 mb - 0.00 in0.0 mm 0.00 in0.0 mm
02:50 PM 73.4°F23.0°C 56.7°F13.7°C 56% 2.3 mph ENE3.7 kmh ENE 4.6 mph7.4 kmh 30.03 in1016.9 mb - 0.00 in0.0 mm 0.00 in0.0 mm
02:55 PM 73.2°F22.9°C 56.6°F13.7°C 56% 5.8 mph SSE9.3 kmh SSE 8.1 mph13.0 kmh 30.03 in1016.9 mb - 0.00 in0.0 mm 0.00 in0.0 mm
03:00 PM 73.1°F22.8°C 55.9°F13.3°C 55% 3.5 mph ESE5.6 kmh ESE 10.4 mph16.7 kmh 30.03 in1016.9 mb - 0.00 in0.0 mm 0.00 in0.0 mm
03:10 PM 72.3°F22.4°C 57.7°F14.3°C 60% 3.5 mph E5.6 kmh E 5.8 mph9.3 kmh 30.00 in1015.9 mb - 0.00 in0.0 mm 0.00 in0.0 mm
03:15 PM 72.1°F22.3°C 57.9°F14.4°C 61% 3.5 mph E5.6 kmh E 5.8 mph9.3 kmh 30.00 in1015.9 mb - 0.00 in0.0 mm 0.00 in0.0 mm
03:20 PM 72.0°F22.2°C 57.8°F14.3°C 61% 2.3 mph E3.7 kmh E 6.9 mph11.1 kmh 30.00 in1015.9 mb - 0.00 in0.0 mm 0.00 in0.0 mm
03:25 PM 72.0°F22.2°C 57.8°F14.3°C 61% 2.3 mph E3.7 kmh E 3.5 mph5.6 kmh 30.00 in1015.9 mb - 0.00 in0.0 mm 0.00 in0.0 mm
03:30 PM 72.1°F22.3°C 57.9°F14.4°C 61% Calm Calm -- 30.00 in1015.9 mb - 0.00 in0.0 mm 0.00 in0.0 mm
03:35 PM 72.3°F22.4°C 58.6°F14.8°C 62% 1.2 mph N1.9 kmh N 3.5 mph5.6 kmh 30.00 in1015.9 mb - 0.00 in0.0 mm 0.00 in0.0 mm
03:40 PM 72.3°F22.4°C 58.6°F14.8°C 62% 1.2 mph SE1.9 kmh SE 3.5 mph5.6 kmh 30.00 in1015.9 mb - 0.00 in0.0 mm 0.00 in0.0 mm
03:45 PM 72.8°F22.7°C 59.1°F15.1°C 62% 3.5 mph E5.6 kmh E 5.8 mph9.3 kmh 30.00 in1015.9 mb - 0.00 in0.0 mm 0.00 in0.0 mm
03:50 PM 73.4°F23.0°C 59.6°F15.3°C 62% 3.5 mph NE5.6 kmh NE 6.9 mph11.1 kmh 30.00 in1015.9 mb - 0.00 in0.0 mm 0.00 in0.0 mm
03:55 PM 73.6°F23.1°C 58.8°F14.9°C 60% 1.2 mph E1.9 kmh E 3.5 mph5.6 kmh 30.00 in1015.9 mb - 0.00 in0.0 mm 0.00 in0.0 mm
04:00 PM 74.1°F23.4°C 57.9°F14.4°C 57% 3.5 mph E5.6 kmh E 5.8 mph9.3 kmh 30.00 in1015.9 mb - 0.00 in0.0 mm 0.00 in0.0 mm
04:10 PM 75.4°F24.1°C 58.1°F14.5°C 55% 1.2 mph SW1.9 kmh SW 3.5 mph5.6 kmh 29.97 in1014.9 mb - 0.00 in0.0 mm 0.00 in0.0 mm
04:15 PM 76.1°F24.5°C 58.2°F14.6°C 54% 1.2 mph ENE1.9 kmh ENE 3.5 mph5.6 kmh 29.97 in1014.9 mb - 0.00 in0.0 mm 0.00 in0.0 mm
04:20 PM 76.3°F24.6°C 55.1°F12.8°C 48% 3.5 mph NE5.6 kmh NE 4.6 mph7.4 kmh 29.97 in1014.9 mb - 0.00 in0.0 mm 0.00 in0.0 mm
04:25 PM 75.9°F24.4°C 55.4°F13.0°C 49% 1.2 mph E1.9 kmh E 2.3 mph3.7 kmh 29.97 in1014.9 mb - 0.00 in0.0 mm 0.00 in0.0 mm
04:30 PM 75.6°F24.2°C 56.2°F13.4°C 51% 3.5 mph E5.6 kmh E 3.5 mph5.6 kmh 29.97 in1014.9 mb - 0.00 in0.0 mm 0.00 in0.0 mm
04:35 PM 75.4°F24.1°C 56.0°F13.3°C 51% 5.8 mph E9.3 kmh E 5.8 mph9.3 kmh 29.97 in1014.9 mb - 0.00 in0.0 mm 0.00 in0.0 mm
04:40 PM 75.0°F23.9°C 56.7°F13.7°C 53% 2.3 mph ENE3.7 kmh ENE 3.5 mph5.6 kmh 29.97 in1014.9 mb - 0.00 in0.0 mm 0.00 in0.0 mm
04:45 PM 75.0°F23.9°C 56.7°F13.7°C 53% 5.8 mph E9.3 kmh E 8.1 mph13.0 kmh 29.97 in1014.9 mb - 0.00 in0.0 mm 0.00 in0.0 mm
04:50 PM 74.8°F23.8°C 56.0°F13.3°C 52% 2.3 mph NE3.7 kmh NE 5.8 mph9.3 kmh 29.97 in1014.9 mb - 0.00 in0.0 mm 0.00 in0.0 mm
04:55 PM 74.8°F23.8°C 56.6°F13.7°C 53% 2.3 mph ENE3.7 kmh ENE 3.5 mph5.6 kmh 29.97 in1014.9 mb - 0.00 in0.0 mm 0.00 in0.0 mm
05:00 PM 74.8°F23.8°C 55.5°F13.1°C 51% 3.5 mph E5.6 kmh E 5.8 mph9.3 kmh 29.97 in1014.9 mb - 0.00 in0.0 mm 0.00 in0.0 mm
05:10 PM 74.7°F23.7°C 54.2°F12.3°C 49% 3.5 mph E5.6 kmh E 5.8 mph9.3 kmh 29.97 in1014.9 mb - 0.00 in0.0 mm 0.00 in0.0 mm
05:15 PM 74.5°F23.6°C 54.6°F12.6°C 50% 3.5 mph E5.6 kmh E 5.8 mph9.3 kmh 29.97 in1014.9 mb - 0.00 in0.0 mm 0.00 in0.0 mm
05:20 PM 74.3°F23.5°C 54.5°F12.5°C 50% 3.5 mph E5.6 kmh E 5.8 mph9.3 kmh 29.97 in1014.9 mb - 0.00 in0.0 mm 0.00 in0.0 mm
05:25 PM 74.1°F23.4°C 54.3°F12.4°C 50% 3.5 mph NE5.6 kmh NE 3.5 mph5.6 kmh 29.97 in1014.9 mb - 0.00 in0.0 mm 0.00 in0.0 mm
05:30 PM 74.1°F23.4°C 55.4°F13.0°C 52% 3.5 mph SE5.6 kmh SE 4.6 mph7.4 kmh 29.97 in1014.9 mb - 0.00 in0.0 mm 0.00 in0.0 mm
05:35 PM 73.9°F23.3°C 55.7°F13.2°C 53% 1.2 mph E1.9 kmh E 3.5 mph5.6 kmh 29.97 in1014.9 mb - 0.00 in0.0 mm 0.00 in0.0 mm
05:40 PM 73.9°F23.3°C 56.8°F13.8°C 55% Calm Calm -- 29.97 in1014.9 mb - 0.00 in0.0 mm 0.00 in0.0 mm
05:45 PM 73.8°F23.2°C 56.6°F13.7°C 55% 1.2 mph E1.9 kmh E 4.6 mph7.4 kmh 29.97 in1014.9 mb - 0.00 in0.0 mm 0.00 in0.0 mm
05:50 PM 73.4°F23.0°C 56.2°F13.4°C 55% 4.6 mph ESE7.4 kmh ESE 6.9 mph11.1 kmh 29.97 in1014.9 mb - 0.00 in0.0 mm 0.00 in0.0 mm
05:55 PM 73.4°F23.0°C 56.2°F13.4°C 55% 4.6 mph SE7.4 kmh SE 10.4 mph16.7 kmh 29.97 in1014.9 mb - 0.00 in0.0 mm 0.00 in0.0 mm
06:00 PM 73.2°F22.9°C 56.1°F13.4°C 55% 2.3 mph E3.7 kmh E 4.6 mph7.4 kmh 29.97 in1014.9 mb - 0.00 in0.0 mm 0.00 in0.0 mm
06:10 PM 72.7°F22.6°C 56.1°F13.4°C 56% 2.3 mph NE3.7 kmh NE 5.8 mph9.3 kmh 29.97 in1014.9 mb - 0.00 in0.0 mm 0.00 in0.0 mm
06:15 PM 72.3°F22.4°C 55.7°F13.2°C 56% 1.2 mph S1.9 kmh S 1.2 mph1.9 kmh 29.97 in1014.9 mb - 0.00 in0.0 mm 0.00 in0.0 mm
06:20 PM 72.1°F22.3°C 55.1°F12.8°C 55% 3.5 mph E5.6 kmh E 8.1 mph13.0 kmh 29.97 in1014.9 mb - 0.00 in0.0 mm 0.00 in0.0 mm
06:25 PM 71.8°F22.1°C 54.7°F12.6°C 55% 3.5 mph NE5.6 kmh NE 5.8 mph9.3 kmh 29.97 in1014.9 mb - 0.00 in0.0 mm 0.00 in0.0 mm
06:30 PM 71.1°F21.7°C 55.1°F12.8°C 57% 3.5 mph E5.6 kmh E 8.1 mph13.0 kmh 29.97 in1014.9 mb - 0.00 in0.0 mm 0.00 in0.0 mm
06:35 PM 70.7°F21.5°C 55.2°F12.9°C 58% 3.5 mph E5.6 kmh E 5.8 mph9.3 kmh 29.97 in1014.9 mb - 0.00 in0.0 mm 0.00 in0.0 mm
06:40 PM 70.3°F21.3°C 54.9°F12.7°C 58% 3.5 mph NE5.6 kmh NE 5.8 mph9.3 kmh 29.97 in1014.9 mb - 0.00 in0.0 mm 0.00 in0.0 mm
06:45 PM 70.2°F21.2°C 54.7°F12.6°C 58% 3.5 mph E5.6 kmh E 4.6 mph7.4 kmh 29.97 in1014.9 mb - 0.00 in0.0 mm 0.00 in0.0 mm
06:50 PM 69.8°F21.0°C 54.4°F12.4°C 58% 2.3 mph E3.7 kmh E 8.1 mph13.0 kmh 29.97 in1014.9 mb - 0.00 in0.0 mm 0.00 in0.0 mm
06:55 PM 69.6°F20.9°C 55.1°F12.8°C 60% 1.2 mph NE1.9 kmh NE 3.5 mph5.6 kmh 29.97 in1014.9 mb - 0.00 in0.0 mm 0.00 in0.0 mm
07:00 PM 69.4°F20.8°C 55.4°F13.0°C 61% 1.2 mph E1.9 kmh E 2.3 mph3.7 kmh 29.97 in1014.9 mb - 0.00 in0.0 mm 0.00 in0.0 mm
07:10 PM 68.9°F20.5°C 55.4°F13.0°C 62% 2.3 mph SE3.7 kmh SE 3.5 mph5.6 kmh 29.97 in1014.9 mb - 0.00 in0.0 mm 0.00 in0.0 mm
07:15 PM 68.7°F20.4°C 55.6°F13.1°C 63% 2.3 mph E3.7 kmh E 3.5 mph5.6 kmh 29.97 in1014.9 mb - 0.00 in0.0 mm 0.00 in0.0 mm
07:20 PM 68.5°F20.3°C 55.4°F13.0°C 63% Calm Calm 1.2 mph1.9 kmh 29.97 in1014.9 mb - 0.00 in0.0 mm 0.00 in0.0 mm
07:25 PM 68.2°F20.1°C 55.5°F13.1°C 64% 2.3 mph E3.7 kmh E 3.5 mph5.6 kmh 29.97 in1014.9 mb - 0.00 in0.0 mm 0.00 in0.0 mm
07:30 PM 67.8°F19.9°C 55.6°F13.1°C 65% 3.5 mph ENE5.6 kmh ENE 4.6 mph7.4 kmh 29.97 in1014.9 mb - 0.00 in0.0 mm 0.00 in0.0 mm
07:35 PM 67.3°F19.6°C 55.5°F13.1°C 66% 2.3 mph E3.7 kmh E 3.5 mph5.6 kmh 29.97 in1014.9 mb - 0.00 in0.0 mm 0.00 in0.0 mm
07:40 PM 67.1°F19.5°C 55.8°F13.2°C 67% 3.5 mph E5.6 kmh E 4.6 mph7.4 kmh 29.97 in1014.9 mb - 0.00 in0.0 mm 0.00 in0.0 mm
07:45 PM 66.7°F19.3°C 56.2°F13.4°C 69% 2.3 mph NE3.7 kmh NE 3.5 mph5.6 kmh 29.97 in1014.9 mb - 0.00 in0.0 mm 0.00 in0.0 mm
07:50 PM 66.7°F19.3°C 56.2°F13.4°C 69% 1.2 mph NE1.9 kmh NE 3.5 mph5.6 kmh 29.97 in1014.9 mb - 0.00 in0.0 mm 0.00 in0.0 mm
07:55 PM 66.9°F19.4°C 56.4°F13.6°C 69% 2.3 mph E3.7 kmh E 3.5 mph5.6 kmh 29.97 in1014.9 mb - 0.00 in0.0 mm 0.00 in0.0 mm
08:00 PM 66.7°F19.3°C 56.6°F13.7°C 70% 5.8 mph NE9.3 kmh NE 8.1 mph13.0 kmh 29.97 in1014.9 mb - 0.00 in0.0 mm 0.00 in0.0 mm
08:10 PM 66.6°F19.2°C 56.5°F13.6°C 70% 2.3 mph NNE3.7 kmh NNE 3.5 mph5.6 kmh 29.97 in1014.9 mb - 0.00 in0.0 mm 0.00 in0.0 mm
08:15 PM 66.6°F19.2°C 56.9°F13.8°C 71% 6.9 mph E11.1 kmh E 9.2 mph14.8 kmh 29.97 in1014.9 mb - 0.00 in0.0 mm 0.00 in0.0 mm
08:20 PM 66.6°F19.2°C 56.9°F13.8°C 71% 2.3 mph NE3.7 kmh NE 3.5 mph5.6 kmh 29.97 in1014.9 mb - 0.00 in0.0 mm 0.00 in0.0 mm
08:25 PM 66.6°F19.2°C 56.5°F13.6°C 70% 2.3 mph SW3.7 kmh SW 3.5 mph5.6 kmh 29.97 in1014.9 mb - 0.00 in0.0 mm 0.00 in0.0 mm
08:30 PM 66.2°F19.0°C 56.1°F13.4°C 70% 3.5 mph NW5.6 kmh NW 6.9 mph11.1 kmh 29.97 in1014.9 mb - 0.00 in0.0 mm 0.00 in0.0 mm
08:35 PM 66.2°F19.0°C 55.3°F12.9°C 68% 5.8 mph WSW9.3 kmh WSW 8.1 mph13.0 kmh 29.97 in1014.9 mb - 0.00 in0.0 mm 0.00 in0.0 mm
08:40 PM 66.4°F19.1°C 54.3°F12.4°C 65% 5.8 mph SW9.3 kmh SW 6.9 mph11.1 kmh 29.97 in1014.9 mb - 0.00 in0.0 mm 0.00 in0.0 mm
08:45 PM 66.6°F19.2°C 54.4°F12.4°C 65% 4.6 mph SW7.4 kmh SW 6.9 mph11.1 kmh 29.97 in1014.9 mb - 0.00 in0.0 mm 0.00 in0.0 mm
08:50 PM 66.2°F19.0°C 54.1°F12.3°C 65% 3.5 mph NW5.6 kmh NW 5.8 mph9.3 kmh 29.97 in1014.9 mb - 0.00 in0.0 mm 0.00 in0.0 mm
08:55 PM 66.0°F18.9°C 54.7°F12.6°C 67% 3.5 mph WSW5.6 kmh WSW 6.9 mph11.1 kmh 29.97 in1014.9 mb - 0.00 in0.0 mm 0.00 in0.0 mm
09:00 PM 65.7°F18.7°C 54.4°F12.4°C 67% 1.2 mph W1.9 kmh W 3.5 mph5.6 kmh 29.97 in1014.9 mb - 0.00 in0.0 mm 0.00 in0.0 mm
09:10 PM 65.0°F18.3°C 53.7°F12.1°C 67% 2.3 mph W3.7 kmh W 4.6 mph7.4 kmh 30.00 in1015.9 mb - 0.00 in0.0 mm 0.00 in0.0 mm
09:15 PM 64.8°F18.2°C 54.0°F12.2°C 68% 3.5 mph W5.6 kmh W 5.8 mph9.3 kmh 30.00 in1015.9 mb - 0.00 in0.0 mm 0.00 in0.0 mm
09:20 PM 64.6°F18.1°C 53.8°F12.1°C 68% 1.2 mph SW1.9 kmh SW 3.5 mph5.6 kmh 30.00 in1015.9 mb - 0.00 in0.0 mm 0.00 in0.0 mm
09:25 PM 64.4°F18.0°C 54.0°F12.2°C 69% 5.8 mph NW9.3 kmh NW 10.4 mph16.7 kmh 30.00 in1015.9 mb - 0.00 in0.0 mm 0.00 in0.0 mm
09:30 PM 64.4°F18.0°C 54.4°F12.4°C 70% 4.6 mph W7.4 kmh W 6.9 mph11.1 kmh 30.00 in1015.9 mb - 0.00 in0.0 mm 0.00 in0.0 mm
09:40 PM 64.1°F17.8°C 54.5°F12.5°C 71% 5.8 mph W9.3 kmh W 8.1 mph13.0 kmh 30.00 in1015.9 mb - 0.00 in0.0 mm 0.00 in0.0 mm
09:45 PM 63.9°F17.7°C 54.7°F12.6°C 72% 4.6 mph NW7.4 kmh NW 5.8 mph9.3 kmh 30.00 in1015.9 mb - 0.00 in0.0 mm 0.00 in0.0 mm
09:50 PM 63.7°F17.6°C 54.5°F12.5°C 72% 3.5 mph N5.6 kmh N 8.1 mph13.0 kmh 30.00 in1015.9 mb - 0.00 in0.0 mm 0.00 in0.0 mm
10:00 PM 63.9°F17.7°C 55.0°F12.8°C 73% 2.3 mph W3.7 kmh W 3.5 mph5.6 kmh 30.00 in1015.9 mb - 0.00 in0.0 mm 0.00 in0.0 mm
10:10 PM 63.9°F17.7°C 55.0°F12.8°C 73% 6.9 mph W11.1 kmh W 9.2 mph14.8 kmh 30.00 in1015.9 mb - 0.00 in0.0 mm 0.00 in0.0 mm
10:15 PM 64.2°F17.9°C 55.4°F13.0°C 73% 3.5 mph NNW5.6 kmh NNW 8.1 mph13.0 kmh 30.00 in1015.9 mb - 0.00 in0.0 mm 0.00 in0.0 mm
10:20 PM 64.4°F18.0°C 55.2°F12.9°C 72% 3.5 mph W5.6 kmh W 6.9 mph11.1 kmh 30.00 in1015.9 mb - 0.00 in0.0 mm 0.00 in0.0 mm
10:25 PM 64.6°F18.1°C 55.3°F12.9°C 72% 1.2 mph W1.9 kmh W 4.6 mph7.4 kmh 30.00 in1015.9 mb - 0.00 in0.0 mm 0.00 in0.0 mm
10:30 PM 64.6°F18.1°C 55.3°F12.9°C 72% 4.6 mph W7.4 kmh W 5.8 mph9.3 kmh 30.00 in1015.9 mb - 0.00 in0.0 mm 0.00 in0.0 mm
10:35 PM 64.4°F18.0°C 55.2°F12.9°C 72% 2.3 mph NW3.7 kmh NW 3.5 mph5.6 kmh 30.00 in1015.9 mb - 0.00 in0.0 mm 0.00 in0.0 mm
10:40 PM 64.4°F18.0°C 55.2°F12.9°C 72% 3.5 mph NW5.6 kmh NW 6.9 mph11.1 kmh 30.00 in1015.9 mb - 0.00 in0.0 mm 0.00 in0.0 mm
10:45 PM 64.4°F18.0°C 55.2°F12.9°C 72% 4.6 mph W7.4 kmh W 5.8 mph9.3 kmh 30.00 in1015.9 mb - 0.00 in0.0 mm 0.00 in0.0 mm
10:50 PM 64.2°F17.9°C 55.4°F13.0°C 73% 4.6 mph NW7.4 kmh NW 6.9 mph11.1 kmh 30.00 in1015.9 mb - 0.00 in0.0 mm 0.00 in0.0 mm
10:55 PM 64.2°F17.9°C 55.4°F13.0°C 73% 5.8 mph W9.3 kmh W 8.1 mph13.0 kmh 30.00 in1015.9 mb - 0.00 in0.0 mm 0.00 in0.0 mm
11:00 PM 64.2°F17.9°C 55.4°F13.0°C 73% 6.9 mph W11.1 kmh W 9.2 mph14.8 kmh 30.00 in1015.9 mb - 0.00 in0.0 mm 0.00 in0.0 mm
11:10 PM 64.0°F17.8°C 55.2°F12.9°C 73% 6.9 mph W11.1 kmh W 9.2 mph14.8 kmh 30.03 in1016.9 mb - 0.00 in0.0 mm 0.00 in0.0 mm
11:15 PM 64.0°F17.8°C 55.2°F12.9°C 73% 5.8 mph WSW9.3 kmh WSW 8.1 mph13.0 kmh 30.03 in1016.9 mb - 0.00 in0.0 mm 0.00 in0.0 mm
11:20 PM 64.0°F17.8°C 55.2°F12.9°C 73% 2.3 mph W3.7 kmh W 5.8 mph9.3 kmh 30.03 in1016.9 mb - 0.00 in0.0 mm 0.00 in0.0 mm
11:25 PM 63.7°F17.6°C 55.2°F12.9°C 74% 4.6 mph W7.4 kmh W 5.8 mph9.3 kmh 30.03 in1016.9 mb - 0.00 in0.0 mm 0.00 in0.0 mm
11:30 PM 63.5°F17.5°C 55.1°F12.8°C 74% 5.8 mph W9.3 kmh W 8.1 mph13.0 kmh 30.03 in1016.9 mb - 0.00 in0.0 mm 0.00 in0.0 mm
11:35 PM 63.3°F17.4°C 55.3°F12.9°C 75% 6.9 mph W11.1 kmh W 10.4 mph16.7 kmh 30.03 in1016.9 mb - 0.00 in0.0 mm 0.00 in0.0 mm
11:40 PM 63.1°F17.3°C 55.1°F12.8°C 75% 3.5 mph WSW5.6 kmh WSW 8.1 mph13.0 kmh 30.03 in1016.9 mb - 0.00 in0.0 mm 0.00 in0.0 mm
11:45 PM 63.0°F17.2°C 54.9°F12.7°C 75% 5.8 mph W9.3 kmh W 8.1 mph13.0 kmh 30.03 in1016.9 mb - 0.00 in0.0 mm 0.00 in0.0 mm
11:50 PM 62.8°F17.1°C 55.1°F12.8°C 76% 5.8 mph W9.3 kmh W 8.1 mph13.0 kmh 30.03 in1016.9 mb - 0.00 in0.0 mm 0.00 in0.0 mm
11:55 PM 62.6°F17.0°C 54.9°F12.7°C 76% 5.8 mph NW9.3 kmh NW 8.1 mph13.0 kmh 30.03 in1016.9 mb - 0.00 in0.0 mm 0.00 in0.0 mm